aviador You're here:

LBPD Decoded Metar

PLOVDIV in BULGARIA
Report Time2018-07-22 12:30:00
UTC Time2018-07-22 12:44:08
Flight Rules vfr VFR
Wind060° at 07 kt
W.Decomp.*RWY 12: 3.2 kt HW 6.2 kt LCW
W.Rank060° ranks 25
Current wind is above 060° avg. (5.4)
Visibility9999 m
Phenomena:N/A
Clouds:N/A
Expected CloudBase > 7,200 ft AGL from Temp-Dew spread
CeilingNone
Temp34°C (ISA +20)
Dew Point16°C (34% RH)
Heat Index34.0°C
AAT33.4°C
QNH1007 hPa
Density Alt3,346 ft
Elevation607 ft
Report Wrong Elevation
Raw Report
LBPD 221230Z AUTO 06007KT 040V100 9999 NCD 34/16 Q1007 NOSIG=

Extra information for LBPD:More info

Metar Taf Metar & Taf Last 4 Metars F.Rules Stats Wind Profile Meteogram Temp Stats Airport Information Weather charts Add Link Nearby VenuesMetar ALERT Operation Metar Decoded Social comments